Penbrook, Pennsylvania
Current Conditions -  °F | °C
As of 11:56 AM on Friday 28 Nov 2014 (Local Time) from KCXY Reporting Station
Overcast Overcast  
Wind Chill: 26°   Ceiling: 5000
Heat Index: 34°   Visibility: 10mi
Dew Point: 16°   Wind: 10mph
Humidity: 48%   Direction: 290°WNW
Pressure: 30.26"   Gusts: NA
Location:  40.2759°N, 76.8659°W
Report Text: KCXY 281656Z 29009KT 10SM BKN050 OVC060 01/M09 A3026 RMK AO2 SLP252 T00111089
Loading
Personal Weather Stations






























Interactive Weather Map New forecast layout! Learn more

10-Day Weather Forecast

Advertisements
Track Severe Weather on mobile